sensor_id;sensor_type;location;lat;lon;timestamp;pressure;altitude;pressure_sealevel;temperature
69186;BMP280;56298;49.246;9.410;2022-12-17T00:01:51;99851.75;;;-7.33
69186;BMP280;56298;49.246;9.410;2022-12-17T00:04:35;99844.19;;;-7.43
69186;BMP280;56298;49.246;9.410;2022-12-17T00:07:19;99842.19;;;-7.54
69186;BMP280;56298;49.246;9.410;2022-12-17T00:10:03;99845.31;;;-7.64
69186;BMP280;56298;49.246;9.410;2022-12-17T00:12:47;99841.44;;;-7.68
69186;BMP280;56298;49.246;9.410;2022-12-17T00:15:31;99846.38;;;-7.72
69186;BMP280;56298;49.246;9.410;2022-12-17T00:18:15;99851.34;;;-7.82
69186;BMP280;56298;49.246;9.410;2022-12-17T00:20:59;99855.41;;;-7.80
69186;BMP280;56298;49.246;9.410;2022-12-17T00:23:44;99856.41;;;-7.81
69186;BMP280;56298;49.246;9.410;2022-12-17T00:26:28;99856.22;;;-7.79
69186;BMP280;56298;49.246;9.410;2022-12-17T00:29:12;99866.84;;;-7.79
69186;BMP280;56298;49.246;9.410;2022-12-17T00:31:56;99864.03;;;-7.84
69186;BMP280;56298;49.246;9.410;2022-12-17T00:34:40;99864.41;;;-7.81
69186;BMP280;56298;49.246;9.410;2022-12-17T00:37:24;99868.94;;;-7.88
69186;BMP280;56298;49.246;9.410;2022-12-17T00:40:08;99868.72;;;-7.80
69186;BMP280;56298;49.246;9.410;2022-12-17T00:43:10;99874.88;;;-7.86
69186;BMP280;56298;49.246;9.410;2022-12-17T00:45:55;99874.88;;;-7.86
69186;BMP280;56298;49.246;9.410;2022-12-17T00:48:39;99881.84;;;-7.92
69186;BMP280;56298;49.246;9.410;2022-12-17T00:51:24;99879.19;;;-7.98
69186;BMP280;56298;49.246;9.410;2022-12-17T00:54:08;99886.97;;;-7.97
69186;BMP280;56298;49.246;9.410;2022-12-17T00:56:52;99888.19;;;-8.00
69186;BMP280;56298;49.246;9.410;2022-12-17T00:59:36;99883.91;;;-8.07
69186;BMP280;56298;49.246;9.410;2022-12-17T01:02:20;99884.13;;;-8.16
69186;BMP280;56298;49.246;9.410;2022-12-17T01:05:04;99883.72;;;-8.33
69186;BMP280;56298;49.246;9.410;2022-12-17T01:07:48;99892.50;;;-8.32
69186;BMP280;56298;49.246;9.410;2022-12-17T01:10:32;99894.34;;;-8.33
69186;BMP280;56298;49.246;9.410;2022-12-17T01:13:17;99902.13;;;-8.25
69186;BMP280;56298;49.246;9.410;2022-12-17T01:16:07;99913.16;;;-8.21
69186;BMP280;56298;49.246;9.410;2022-12-17T01:18:51;99915.25;;;-8.16
69186;BMP280;56298;49.246;9.410;2022-12-17T01:21:36;99919.13;;;-8.26
69186;BMP280;56298;49.246;9.410;2022-12-17T01:24:20;99921.97;;;-8.34
69186;BMP280;56298;49.246;9.410;2022-12-17T01:27:05;99926.47;;;-8.21
69186;BMP280;56298;49.246;9.410;2022-12-17T01:29:49;99927.09;;;-8.39
69186;BMP280;56298;49.246;9.410;2022-12-17T01:32:32;99941.63;;;-8.35
69186;BMP280;56298;49.246;9.410;2022-12-17T01:35:16;99930.13;;;-8.42
69186;BMP280;56298;49.246;9.410;2022-12-17T01:38:00;99941.78;;;-8.43
69186;BMP280;56298;49.246;9.410;2022-12-17T01:40:50;99935.06;;;-8.46
69186;BMP280;56298;49.246;9.410;2022-12-17T01:43:37;99935.22;;;-8.54
69186;BMP280;56298;49.246;9.410;2022-12-17T01:46:21;99938.31;;;-8.64
69186;BMP280;56298;49.246;9.410;2022-12-17T01:49:07;99942.63;;;-8.56
69186;BMP280;56298;49.246;9.410;2022-12-17T01:51:52;99948.53;;;-8.61
69186;BMP280;56298;49.246;9.410;2022-12-17T01:54:38;99948.50;;;-8.68
69186;BMP280;56298;49.246;9.410;2022-12-17T01:57:24;99951.97;;;-8.81
69186;BMP280;56298;49.246;9.410;2022-12-17T02:00:11;99965.31;;;-8.60
69186;BMP280;56298;49.246;9.410;2022-12-17T02:03:16;99965.94;;;-8.45
69186;BMP280;56298;49.246;9.410;2022-12-17T02:09:22;99955.41;;;-8.87
69186;BMP280;56298;49.246;9.410;2022-12-17T02:12:27;99955.22;;;-8.92
69186;BMP280;56298;49.246;9.410;2022-12-17T02:15:26;99954.00;;;-8.83
69186;BMP280;56298;49.246;9.410;2022-12-17T02:18:19;99963.78;;;-8.90
69186;BMP280;56298;49.246;9.410;2022-12-17T02:21:05;99965.00;;;-8.93
69186;BMP280;56298;49.246;9.410;2022-12-17T02:26:42;99966.41;;;-8.97
69186;BMP280;56298;49.246;9.410;2022-12-17T02:29:33;99973.38;;;-9.03
69186;BMP280;56298;49.246;9.410;2022-12-17T02:32:19;99976.03;;;-8.89
69186;BMP280;56298;49.246;9.410;2022-12-17T02:35:13;99973.19;;;-8.88
69186;BMP280;56298;49.246;9.410;2022-12-17T02:37:57;99969.56;;;-8.73
69186;BMP280;56298;49.246;9.410;2022-12-17T02:40:44;99984.06;;;-8.76
69186;BMP280;56298;49.246;9.410;2022-12-17T02:43:29;99976.13;;;-8.69
69186;BMP280;56298;49.246;9.410;2022-12-17T02:46:15;99983.16;;;-8.96
69186;BMP280;56298;49.246;9.410;2022-12-17T02:49:18;99983.50;;;-9.13
69186;BMP280;56298;49.246;9.410;2022-12-17T02:52:03;99984.59;;;-9.36
69186;BMP280;56298;49.246;9.410;2022-12-17T02:54:47;100000.78;;;-9.31
69186;BMP280;56298;49.246;9.410;2022-12-17T02:57:30;99998.59;;;-9.20
69186;BMP280;56298;49.246;9.410;2022-12-17T03:00:15;99997.78;;;-9.21
69186;BMP280;56298;49.246;9.410;2022-12-17T03:02:58;100001.31;;;-9.14
69186;BMP280;56298;49.246;9.410;2022-12-17T03:05:47;100004.13;;;-9.15
69186;BMP280;56298;49.246;9.410;2022-12-17T03:08:30;100013.16;;;-9.09
69186;BMP280;56298;49.246;9.410;2022-12-17T03:11:14;100027.88;;;-9.07
69186;BMP280;56298;49.246;9.410;2022-12-17T03:13:58;100019.66;;;-9.19
69186;BMP280;56298;49.246;9.410;2022-12-17T03:16:42;100021.31;;;-9.11
69186;BMP280;56298;49.246;9.410;2022-12-17T03:19:26;100023.16;;;-9.11
69186;BMP280;56298;49.246;9.410;2022-12-17T03:22:10;100024.31;;;-9.21
69186;BMP280;56298;49.246;9.410;2022-12-17T03:24:54;100023.72;;;-9.23
69186;BMP280;56298;49.246;9.410;2022-12-17T03:27:38;100029.13;;;-9.38
69186;BMP280;56298;49.246;9.410;2022-12-17T03:30:22;100037.63;;;-9.49
69186;BMP280;56298;49.246;9.410;2022-12-17T03:33:07;100035.16;;;-9.51
69186;BMP280;56298;49.246;9.410;2022-12-17T03:35:54;100033.81;;;-9.69
69186;BMP280;56298;49.246;9.410;2022-12-17T03:38:38;100035.72;;;-9.56
69186;BMP280;56298;49.246;9.410;2022-12-17T03:41:22;100044.63;;;-9.64
69186;BMP280;56298;49.246;9.410;2022-12-17T03:44:05;100046.03;;;-9.68
69186;BMP280;56298;49.246;9.410;2022-12-17T03:46:49;100038.91;;;-9.67
69186;BMP280;56298;49.246;9.410;2022-12-17T03:49:33;100035.63;;;-9.69
69186;BMP280;56298;49.246;9.410;2022-12-17T03:52:17;100037.06;;;-9.67
69186;BMP280;56298;49.246;9.410;2022-12-17T03:55:01;100054.56;;;-9.72
69186;BMP280;56298;49.246;9.410;2022-12-17T03:57:45;100042.28;;;-9.80
69186;BMP280;56298;49.246;9.410;2022-12-17T04:00:29;100038.81;;;-9.81
69186;BMP280;56298;49.246;9.410;2022-12-17T04:03:15;100045.75;;;-9.80
69186;BMP280;56298;49.246;9.410;2022-12-17T04:05:58;100048.63;;;-9.75
69186;BMP280;56298;49.246;9.410;2022-12-17T04:08:42;100053.31;;;-9.77
69186;BMP280;56298;49.246;9.410;2022-12-17T04:11:26;100050.25;;;-9.80
69186;BMP280;56298;49.246;9.410;2022-12-17T04:14:10;100062.72;;;-9.74
69186;BMP280;56298;49.246;9.410;2022-12-17T04:16:54;100057.72;;;-9.84
69186;BMP280;56298;49.246;9.410;2022-12-17T04:19:38;100060.06;;;-9.74
69186;BMP280;56298;49.246;9.410;2022-12-17T04:22:22;100061.84;;;-9.81
69186;BMP280;56298;49.246;9.410;2022-12-17T04:25:06;100070.56;;;-9.66
69186;BMP280;56298;49.246;9.410;2022-12-17T04:27:50;100065.19;;;-9.94
69186;BMP280;56298;49.246;9.410;2022-12-17T04:30:34;100069.28;;;-9.92
69186;BMP280;56298;49.246;9.410;2022-12-17T04:33:18;100071.59;;;-9.89
69186;BMP280;56298;49.246;9.410;2022-12-17T04:36:02;100075.31;;;-9.83
69186;BMP280;56298;49.246;9.410;2022-12-17T04:38:46;100082.50;;;-9.77
69186;BMP280;56298;49.246;9.410;2022-12-17T04:41:30;100076.78;;;-9.80
69186;BMP280;56298;49.246;9.410;2022-12-17T04:44:24;100086.41;;;-9.72
69186;BMP280;56298;49.246;9.410;2022-12-17T04:47:08;100090.41;;;-9.83
69186;BMP280;56298;49.246;9.410;2022-12-17T04:49:52;100094.25;;;-9.86
69186;BMP280;56298;49.246;9.410;2022-12-17T04:52:36;100087.50;;;-9.89
69186;BMP280;56298;49.246;9.410;2022-12-17T04:55:20;100090.69;;;-9.93
69186;BMP280;56298;49.246;9.410;2022-12-17T04:58:05;100088.28;;;-10.10
69186;BMP280;56298;49.246;9.410;2022-12-17T05:00:53;100091.81;;;-10.24
69186;BMP280;56298;49.246;9.410;2022-12-17T05:03:37;100095.66;;;-10.27
69186;BMP280;56298;49.246;9.410;2022-12-17T05:06:21;100094.56;;;-10.33
69186;BMP280;56298;49.246;9.410;2022-12-17T05:09:05;100102.31;;;-10.16
69186;BMP280;56298;49.246;9.410;2022-12-17T05:11:49;100110.25;;;-10.16
69186;BMP280;56298;49.246;9.410;2022-12-17T05:14:33;100109.69;;;-10.11
69186;BMP280;56298;49.246;9.410;2022-12-17T05:17:17;100121.59;;;-10.07
69186;BMP280;56298;49.246;9.410;2022-12-17T05:20:01;100109.44;;;-10.17
69186;BMP280;56298;49.246;9.410;2022-12-17T05:22:45;100118.66;;;-10.13
69186;BMP280;56298;49.246;9.410;2022-12-17T05:25:29;100115.97;;;-9.97
69186;BMP280;56298;49.246;9.410;2022-12-17T05:28:13;100123.81;;;-9.89
69186;BMP280;56298;49.246;9.410;2022-12-17T05:30:57;100125.25;;;-9.86
69186;BMP280;56298;49.246;9.410;2022-12-17T05:33:40;100129.94;;;-9.89
69186;BMP280;56298;49.246;9.410;2022-12-17T05:36:24;100134.44;;;-9.89
69186;BMP280;56298;49.246;9.410;2022-12-17T05:39:09;100137.75;;;-10.02
69186;BMP280;56298;49.246;9.410;2022-12-17T05:41:53;100138.38;;;-10.00
69186;BMP280;56298;49.246;9.410;2022-12-17T05:44:37;100140.06;;;-10.14
69186;BMP280;56298;49.246;9.410;2022-12-17T05:47:28;100147.09;;;-10.06
69186;BMP280;56298;49.246;9.410;2022-12-17T05:50:12;100153.75;;;-10.10
69186;BMP280;56298;49.246;9.410;2022-12-17T05:53:03;100153.03;;;-10.04
69186;BMP280;56298;49.246;9.410;2022-12-17T05:55:49;100148.84;;;-10.14
69186;BMP280;56298;49.246;9.410;2022-12-17T05:58:47;100154.63;;;-10.25
69186;BMP280;56298;49.246;9.410;2022-12-17T06:01:30;100157.81;;;-10.30
69186;BMP280;56298;49.246;9.410;2022-12-17T06:04:14;100166.31;;;-10.19
69186;BMP280;56298;49.246;9.410;2022-12-17T06:06:58;100171.19;;;-10.23
69186;BMP280;56298;49.246;9.410;2022-12-17T06:09:42;100175.81;;;-10.25
69186;BMP280;56298;49.246;9.410;2022-12-17T06:12:26;100183.00;;;-10.19
69186;BMP280;56298;49.246;9.410;2022-12-17T06:15:10;100185.41;;;-10.24
69186;BMP280;56298;49.246;9.410;2022-12-17T06:17:55;100188.25;;;-10.26
69186;BMP280;56298;49.246;9.410;2022-12-17T06:20:40;100191.91;;;-10.27
69186;BMP280;56298;49.246;9.410;2022-12-17T06:23:24;100194.91;;;-10.15
69186;BMP280;56298;49.246;9.410;2022-12-17T06:26:08;100197.03;;;-10.25
69186;BMP280;56298;49.246;9.410;2022-12-17T06:28:52;100198.16;;;-10.34
69186;BMP280;56298;49.246;9.410;2022-12-17T06:31:37;100201.13;;;-10.38
69186;BMP280;56298;49.246;9.410;2022-12-17T06:34:20;100207.25;;;-10.37
69186;BMP280;56298;49.246;9.410;2022-12-17T06:37:04;100202.78;;;-10.36
69186;BMP280;56298;49.246;9.410;2022-12-17T06:39:48;100200.00;;;-10.35
69186;BMP280;56298;49.246;9.410;2022-12-17T06:42:32;100208.09;;;-10.36
69186;BMP280;56298;49.246;9.410;2022-12-17T06:45:16;100210.75;;;-10.36
69186;BMP280;56298;49.246;9.410;2022-12-17T06:48:05;100216.44;;;-10.24
69186;BMP280;56298;49.246;9.410;2022-12-17T06:50:52;100221.81;;;-10.18
69186;BMP280;56298;49.246;9.410;2022-12-17T06:53:36;100226.75;;;-10.15
69186;BMP280;56298;49.246;9.410;2022-12-17T06:56:20;100227.56;;;-10.29
69186;BMP280;56298;49.246;9.410;2022-12-17T06:59:04;100228.47;;;-10.37
69186;BMP280;56298;49.246;9.410;2022-12-17T07:01:48;100231.69;;;-10.42
69186;BMP280;56298;49.246;9.410;2022-12-17T07:04:32;100228.94;;;-10.48
69186;BMP280;56298;49.246;9.410;2022-12-17T07:07:16;100233.94;;;-10.39
69186;BMP280;56298;49.246;9.410;2022-12-17T07:10:00;100235.69;;;-10.31
69186;BMP280;56298;49.246;9.410;2022-12-17T07:12:44;100252.44;;;-10.30
69186;BMP280;56298;49.246;9.410;2022-12-17T07:15:28;100250.34;;;-10.35
69186;BMP280;56298;49.246;9.410;2022-12-17T07:18:11;100254.06;;;-10.29
69186;BMP280;56298;49.246;9.410;2022-12-17T07:20:56;100263.66;;;-10.28
69186;BMP280;56298;49.246;9.410;2022-12-17T07:23:40;100262.94;;;-10.22
69186;BMP280;56298;49.246;9.410;2022-12-17T07:26:23;100266.16;;;-10.11
69186;BMP280;56298;49.246;9.410;2022-12-17T07:29:07;100275.13;;;-10.13
69186;BMP280;56298;49.246;9.410;2022-12-17T07:31:51;100274.28;;;-10.13
69186;BMP280;56298;49.246;9.410;2022-12-17T07:34:35;100288.31;;;-10.04
69186;BMP280;56298;49.246;9.410;2022-12-17T07:37:19;100285.16;;;-9.93
69186;BMP280;56298;49.246;9.410;2022-12-17T07:40:03;100299.06;;;-9.91
69186;BMP280;56298;49.246;9.410;2022-12-17T07:42:48;100298.69;;;-10.03
69186;BMP280;56298;49.246;9.410;2022-12-17T07:45:31;100305.09;;;-9.82
69186;BMP280;56298;49.246;9.410;2022-12-17T07:48:15;100311.41;;;-9.68
69186;BMP280;56298;49.246;9.410;2022-12-17T07:50:59;100317.41;;;-9.44
69186;BMP280;56298;49.246;9.410;2022-12-17T07:53:44;100330.28;;;-9.26
69186;BMP280;56298;49.246;9.410;2022-12-17T07:56:28;100325.69;;;-9.17
69186;BMP280;56298;49.246;9.410;2022-12-17T07:59:12;100327.78;;;-8.90
69186;BMP280;56298;49.246;9.410;2022-12-17T08:01:56;100333.31;;;-8.70
69186;BMP280;56298;49.246;9.410;2022-12-17T08:04:39;100338.09;;;-8.58
69186;BMP280;56298;49.246;9.410;2022-12-17T08:07:24;100351.59;;;-8.60
69186;BMP280;56298;49.246;9.410;2022-12-17T08:10:08;100359.03;;;-8.48
69186;BMP280;56298;49.246;9.410;2022-12-17T08:12:57;100359.09;;;-8.42
69186;BMP280;56298;49.246;9.410;2022-12-17T08:15:41;100364.88;;;-8.31
69186;BMP280;56298;49.246;9.410;2022-12-17T08:18:25;100359.63;;;-8.25
69186;BMP280;56298;49.246;9.410;2022-12-17T08:21:28;100355.63;;;-8.14
69186;BMP280;56298;49.246;9.410;2022-12-17T08:24:12;100356.44;;;-7.78
69186;BMP280;56298;49.246;9.410;2022-12-17T08:26:56;100361.22;;;-7.73
69186;BMP280;56298;49.246;9.410;2022-12-17T08:29:40;100365.59;;;-7.87
69186;BMP280;56298;49.246;9.410;2022-12-17T08:32:24;100373.16;;;-7.91
69186;BMP280;56298;49.246;9.410;2022-12-17T08:35:08;100382.41;;;-7.87
69186;BMP280;56298;49.246;9.410;2022-12-17T08:37:52;100375.00;;;-7.91
69186;BMP280;56298;49.246;9.410;2022-12-17T08:40:36;100383.44;;;-7.81
69186;BMP280;56298;49.246;9.410;2022-12-17T08:43:20;100382.28;;;-7.65
69186;BMP280;56298;49.246;9.410;2022-12-17T08:46:04;100375.91;;;-7.28
69186;BMP280;56298;49.246;9.410;2022-12-17T08:48:48;100389.03;;;-7.33
69186;BMP280;56298;49.246;9.410;2022-12-17T08:51:32;100390.25;;;-7.36
69186;BMP280;56298;49.246;9.410;2022-12-17T08:54:15;100391.72;;;-7.20
69186;BMP280;56298;49.246;9.410;2022-12-17T08:56:59;100397.06;;;-7.20
69186;BMP280;56298;49.246;9.410;2022-12-17T08:59:43;100393.00;;;-7.02
69186;BMP280;56298;49.246;9.410;2022-12-17T09:02:27;100404.50;;;-6.95
69186;BMP280;56298;49.246;9.410;2022-12-17T09:05:11;100403.31;;;-6.65
69186;BMP280;56298;49.246;9.410;2022-12-17T09:08:05;100403.53;;;-6.33
69186;BMP280;56298;49.246;9.410;2022-12-17T09:10:50;100402.13;;;-6.36
69186;BMP280;56298;49.246;9.410;2022-12-17T09:13:34;100417.31;;;-6.43
69186;BMP280;56298;49.246;9.410;2022-12-17T09:16:18;100425.09;;;-6.41
69186;BMP280;56298;49.246;9.410;2022-12-17T09:19:02;100421.59;;;-6.55
69186;BMP280;56298;49.246;9.410;2022-12-17T09:21:46;100428.38;;;-6.46
69186;BMP280;56298;49.246;9.410;2022-12-17T09:24:30;100437.22;;;-6.39
69186;BMP280;56298;49.246;9.410;2022-12-17T09:27:14;100428.59;;;-6.14
69186;BMP280;56298;49.246;9.410;2022-12-17T09:29:58;100436.94;;;-5.76
69186;BMP280;56298;49.246;9.410;2022-12-17T09:32:42;100434.56;;;-5.32
69186;BMP280;56298;49.246;9.410;2022-12-17T09:35:26;100437.19;;;-5.18
69186;BMP280;56298;49.246;9.410;2022-12-17T09:38:11;100437.50;;;-5.01
69186;BMP280;56298;49.246;9.410;2022-12-17T09:40:59;100432.78;;;-4.99
69186;BMP280;56298;49.246;9.410;2022-12-17T09:44:00;100435.94;;;-5.16
69186;BMP280;56298;49.246;9.410;2022-12-17T09:46:54;100431.59;;;-4.46
69186;BMP280;56298;49.246;9.410;2022-12-17T09:49:40;100434.97;;;-4.57
69186;BMP280;56298;49.246;9.410;2022-12-17T09:52:26;100437.91;;;-4.65
69186;BMP280;56298;49.246;9.410;2022-12-17T09:55:32;100440.16;;;-4.62
69186;BMP280;56298;49.246;9.410;2022-12-17T09:58:20;100435.22;;;-4.65
69186;BMP280;56298;49.246;9.410;2022-12-17T10:01:05;100436.34;;;-4.80
69186;BMP280;56298;49.246;9.410;2022-12-17T10:03:56;100440.19;;;-5.01
69186;BMP280;56298;49.246;9.410;2022-12-17T10:06:40;100438.53;;;-4.63
69186;BMP280;56298;49.246;9.410;2022-12-17T10:09:25;100441.47;;;-4.21
69186;BMP280;56298;49.246;9.410;2022-12-17T10:12:17;100435.25;;;-3.96
69186;BMP280;56298;49.246;9.410;2022-12-17T10:15:02;100437.47;;;-4.11
69186;BMP280;56298;49.246;9.410;2022-12-17T10:17:47;100440.09;;;-4.05
69186;BMP280;56298;49.246;9.410;2022-12-17T10:20:36;100437.00;;;-4.08
69186;BMP280;56298;49.246;9.410;2022-12-17T10:23:22;100431.00;;;-3.85
69186;BMP280;56298;49.246;9.410;2022-12-17T10:26:06;100429.47;;;-3.74
69186;BMP280;56298;49.246;9.410;2022-12-17T10:28:50;100433.34;;;-3.51
69186;BMP280;56298;49.246;9.410;2022-12-17T10:31:34;100434.88;;;-3.43
69186;BMP280;56298;49.246;9.410;2022-12-17T10:34:19;100437.22;;;-3.35
69186;BMP280;56298;49.246;9.410;2022-12-17T10:37:05;100440.31;;;-3.01
69186;BMP280;56298;49.246;9.410;2022-12-17T10:39:59;100434.25;;;-3.27
69186;BMP280;56298;49.246;9.410;2022-12-17T10:42:45;100437.81;;;-3.14
69186;BMP280;56298;49.246;9.410;2022-12-17T10:45:32;100440.91;;;-2.98
69186;BMP280;56298;49.246;9.410;2022-12-17T10:48:29;100438.28;;;-3.05
69186;BMP280;56298;49.246;9.410;2022-12-17T10:51:33;100432.75;;;-3.22
69186;BMP280;56298;49.246;9.410;2022-12-17T10:54:22;100441.28;;;-3.14
69186;BMP280;56298;49.246;9.410;2022-12-17T10:57:07;100433.72;;;-3.17
69186;BMP280;56298;49.246;9.410;2022-12-17T11:00:14;100435.66;;;-2.93
69186;BMP280;56298;49.246;9.410;2022-12-17T11:02:58;100430.41;;;-3.00
69186;BMP280;56298;49.246;9.410;2022-12-17T11:05:44;100433.63;;;-2.67
69186;BMP280;56298;49.246;9.410;2022-12-17T11:08:30;100430.00;;;-2.61
69186;BMP280;56298;49.246;9.410;2022-12-17T11:11:15;100427.06;;;-2.71
69186;BMP280;56298;49.246;9.410;2022-12-17T11:14:03;100424.31;;;-2.41
69186;BMP280;56298;49.246;9.410;2022-12-17T11:16:56;100421.16;;;-1.90
69186;BMP280;56298;49.246;9.410;2022-12-17T11:20:05;100422.31;;;-1.86
69186;BMP280;56298;49.246;9.410;2022-12-17T11:22:54;100427.28;;;-1.77
69186;BMP280;56298;49.246;9.410;2022-12-17T11:28:42;100419.91;;;-1.41
69186;BMP280;56298;49.246;9.410;2022-12-17T11:31:46;100418.44;;;-1.20
69186;BMP280;56298;49.246;9.410;2022-12-17T11:34:53;100416.56;;;-1.19
69186;BMP280;56298;49.246;9.410;2022-12-17T11:37:50;100422.81;;;-0.84
69186;BMP280;56298;49.246;9.410;2022-12-17T11:40:41;100431.44;;;-0.82
69186;BMP280;56298;49.246;9.410;2022-12-17T11:43:32;100433.56;;;-0.67
69186;BMP280;56298;49.246;9.410;2022-12-17T11:46:27;100433.81;;;-0.86
69186;BMP280;56298;49.246;9.410;2022-12-17T11:56:05;100455.72;;;-1.11
69186;BMP280;56298;49.246;9.410;2022-12-17T11:59:21;100453.38;;;-0.90
69186;BMP280;56298;49.246;9.410;2022-12-17T12:05:39;100457.22;;;-0.86
69186;BMP280;56298;49.246;9.410;2022-12-17T12:08:58;100445.22;;;-0.79
69186;BMP280;56298;49.246;9.410;2022-12-17T12:11:57;100440.59;;;-0.66
69186;BMP280;56298;49.246;9.410;2022-12-17T12:15:21;100444.13;;;-1.12
69186;BMP280;56298;49.246;9.410;2022-12-17T12:18:09;100440.56;;;-1.17
69186;BMP280;56298;49.246;9.410;2022-12-17T12:24:37;100429.56;;;-0.99
69186;BMP280;56298;49.246;9.410;2022-12-17T12:31:05;100435.50;;;-0.97
69186;BMP280;56298;49.246;9.410;2022-12-17T12:33:58;100441.81;;;-0.91
69186;BMP280;56298;49.246;9.410;2022-12-17T12:36:45;100430.53;;;-1.05
69186;BMP280;56298;49.246;9.410;2022-12-17T12:42:45;100425.47;;;-1.01
69186;BMP280;56298;49.246;9.410;2022-12-17T12:51:28;100424.56;;;-1.24
69186;BMP280;56298;49.246;9.410;2022-12-17T13:11:47;100434.53;;;-1.66
69186;BMP280;56298;49.246;9.410;2022-12-17T13:14:16;100433.81;;;-1.73
69186;BMP280;56298;49.246;9.410;2022-12-17T13:19:37;100425.47;;;-1.89
69186;BMP280;56298;49.246;9.410;2022-12-17T13:24:45;100414.09;;;-2.03
69186;BMP280;56298;49.246;9.410;2022-12-17T13:27:35;100409.00;;;-2.04
69186;BMP280;56298;49.246;9.410;2022-12-17T13:32:44;100413.09;;;-2.14
69186;BMP280;56298;49.246;9.410;2022-12-17T13:38:40;100424.28;;;-2.05
69186;BMP280;56298;49.246;9.410;2022-12-17T13:41:10;100416.00;;;-2.03
69186;BMP280;56298;49.246;9.410;2022-12-17T13:43:49;100420.44;;;-2.09
69186;BMP280;56298;49.246;9.410;2022-12-17T13:46:21;100424.41;;;-2.12
69186;BMP280;56298;49.246;9.410;2022-12-17T13:49:20;100425.59;;;-2.07
69186;BMP280;56298;49.246;9.410;2022-12-17T13:51:47;100428.19;;;-2.25
69186;BMP280;56298;49.246;9.410;2022-12-17T13:54:17;100420.69;;;-2.34
69186;BMP280;56298;49.246;9.410;2022-12-17T13:56:43;100425.69;;;-2.38
69186;BMP280;56298;49.246;9.410;2022-12-17T13:59:18;100425.13;;;-2.40
69186;BMP280;56298;49.246;9.410;2022-12-17T14:01:49;100427.69;;;-2.45
69186;BMP280;56298;49.246;9.410;2022-12-17T14:04:20;100426.28;;;-2.48
69186;BMP280;56298;49.246;9.410;2022-12-17T14:06:47;100422.78;;;-2.60
69186;BMP280;56298;49.246;9.410;2022-12-17T14:09:16;100432.03;;;-2.56
69186;BMP280;56298;49.246;9.410;2022-12-17T14:11:42;100435.03;;;-2.65
69186;BMP280;56298;49.246;9.410;2022-12-17T14:14:36;100435.28;;;-2.66
69186;BMP280;56298;49.246;9.410;2022-12-17T14:17:02;100440.16;;;-2.75
69186;BMP280;56298;49.246;9.410;2022-12-17T14:19:28;100439.19;;;-2.81
69186;BMP280;56298;49.246;9.410;2022-12-17T14:21:55;100441.16;;;-2.88
69186;BMP280;56298;49.246;9.410;2022-12-17T14:24:22;100442.31;;;-2.84
69186;BMP280;56298;49.246;9.410;2022-12-17T14:26:56;100450.03;;;-2.88
69186;BMP280;56298;49.246;9.410;2022-12-17T14:29:23;100448.41;;;-2.89
69186;BMP280;56298;49.246;9.410;2022-12-17T14:31:54;100446.41;;;-2.93
69186;BMP280;56298;49.246;9.410;2022-12-17T14:34:20;100442.59;;;-3.04
69186;BMP280;56298;49.246;9.410;2022-12-17T14:36:45;100453.91;;;-3.14
69186;BMP280;56298;49.246;9.410;2022-12-17T14:39:31;100444.31;;;-3.22
69186;BMP280;56298;49.246;9.410;2022-12-17T14:42:05;100439.47;;;-3.32
69186;BMP280;56298;49.246;9.410;2022-12-17T14:44:52;100443.34;;;-3.28
69186;BMP280;56298;49.246;9.410;2022-12-17T14:47:29;100447.50;;;-3.32
69186;BMP280;56298;49.246;9.410;2022-12-17T14:52:44;100441.13;;;-3.49
69186;BMP280;56298;49.246;9.410;2022-12-17T14:57:49;100452.78;;;-3.56
69186;BMP280;56298;49.246;9.410;2022-12-17T15:00:15;100450.16;;;-3.62
69186;BMP280;56298;49.246;9.410;2022-12-17T15:02:42;100440.41;;;-3.75
69186;BMP280;56298;49.246;9.410;2022-12-17T15:05:13;100441.31;;;-3.82
69186;BMP280;56298;49.246;9.410;2022-12-17T15:07:39;100441.72;;;-3.85
69186;BMP280;56298;49.246;9.410;2022-12-17T15:10:11;100450.22;;;-3.88
69186;BMP280;56298;49.246;9.410;2022-12-17T15:12:36;100459.81;;;-3.99
69186;BMP280;56298;49.246;9.410;2022-12-17T15:15:02;100458.69;;;-4.10
69186;BMP280;56298;49.246;9.410;2022-12-17T15:17:27;100460.16;;;-4.14
69186;BMP280;56298;49.246;9.410;2022-12-17T15:19:53;100462.44;;;-4.18
69186;BMP280;56298;49.246;9.410;2022-12-17T15:22:18;100457.97;;;-4.24
69186;BMP280;56298;49.246;9.410;2022-12-17T15:24:44;100457.44;;;-4.33
69186;BMP280;56298;49.246;9.410;2022-12-17T15:27:13;100464.69;;;-4.40
69186;BMP280;56298;49.246;9.410;2022-12-17T15:29:40;100462.94;;;-4.53
69186;BMP280;56298;49.246;9.410;2022-12-17T15:32:05;100459.88;;;-4.57
69186;BMP280;56298;49.246;9.410;2022-12-17T15:34:31;100465.50;;;-4.65
69186;BMP280;56298;49.246;9.410;2022-12-17T15:36:56;100461.03;;;-4.78
69186;BMP280;56298;49.246;9.410;2022-12-17T15:39:22;100462.72;;;-4.84
69186;BMP280;56298;49.246;9.410;2022-12-17T15:41:47;100466.00;;;-4.88
69186;BMP280;56298;49.246;9.410;2022-12-17T15:44:31;100474.69;;;-4.93
69186;BMP280;56298;49.246;9.410;2022-12-17T15:46:56;100470.59;;;-4.96
69186;BMP280;56298;49.246;9.410;2022-12-17T15:49:21;100476.59;;;-5.00
69186;BMP280;56298;49.246;9.410;2022-12-17T15:51:47;100474.16;;;-5.09
69186;BMP280;56298;49.246;9.410;2022-12-17T15:54:12;100480.97;;;-5.13
69186;BMP280;56298;49.246;9.410;2022-12-17T15:56:37;100481.66;;;-5.45
69186;BMP280;56298;49.246;9.410;2022-12-17T15:59:03;100488.28;;;-5.54
69186;BMP280;56298;49.246;9.410;2022-12-17T16:01:28;100485.03;;;-5.69
69186;BMP280;56298;49.246;9.410;2022-12-17T16:03:53;100492.19;;;-5.63
69186;BMP280;56298;49.246;9.410;2022-12-17T16:06:18;100494.88;;;-5.63
69186;BMP280;56298;49.246;9.410;2022-12-17T16:08:44;100497.16;;;-5.67
69186;BMP280;56298;49.246;9.410;2022-12-17T16:11:11;100488.09;;;-5.66
69186;BMP280;56298;49.246;9.410;2022-12-17T16:13:37;100495.94;;;-5.71
69186;BMP280;56298;49.246;9.410;2022-12-17T16:16:03;100504.34;;;-5.74
69186;BMP280;56298;49.246;9.410;2022-12-17T16:18:28;100508.47;;;-5.78
69186;BMP280;56298;49.246;9.410;2022-12-17T16:20:53;100513.59;;;-5.90
69186;BMP280;56298;49.246;9.410;2022-12-17T16:23:20;100516.47;;;-5.92
69186;BMP280;56298;49.246;9.410;2022-12-17T16:25:57;100512.78;;;-5.98
69186;BMP280;56298;49.246;9.410;2022-12-17T16:28:23;100508.47;;;-5.99
69186;BMP280;56298;49.246;9.410;2022-12-17T16:31:05;100515.44;;;-5.98
69186;BMP280;56298;49.246;9.410;2022-12-17T16:33:36;100517.91;;;-5.96
69186;BMP280;56298;49.246;9.410;2022-12-17T16:36:03;100515.25;;;-5.96